Airfield :
LOGIN :

Register | Disclaimer

   EN    FR    IT 

 










Legend :    VFR   Marginal VFR   IFR   Intensive IFR   Very Intensive IFR
Visi :
Ceiling :
>= 8 km
>= 3000ft
5 to 8 km
1000 to 3000 ft
1500m to 5 km
500 to 1000 ft
800 to 1500m
200 to 500 ft
< 800m
< 200 ft
Symbols :   Thunderstorms  Fog  Heavy snow  Heavy precipitations  Wind > 20 kt
SIGMETs :     Misc.  Thunderstorms  Icing  Turbulence  Mountain Waves  Volcanic Ashes






- Airport Elevation : 302 ft
- IATA code : MAH


LEMH - Menorca

CURRENT METAR :
  • 101000Z 08005KT 360V160 9999 FEW025 19/09 Q1023

EXPIRED METARs :
  • 100930Z 07007KT 030V110 9999 FEW025 19/09 Q1023
  • 100900Z 09007KT 050V120 9999 FEW020 18/10 Q1023
  • 100830Z 05007KT CAVOK 17/08 Q1022
  • 100800Z 07007KT CAVOK 17/11 Q1022
  • 100730Z 08008KT CAVOK 16/13 Q1022

TAF TAF LEMH
Valid from the 10 at 09:00 until the 11 at 09:00 UTC


100800Z 1009/1109 12009KT 9999 FEW020 TX20/1012Z TN10/1107Z
BECMG 1017/1019 05005KT
PROB30
TEMPO 1022/1108 1000 BCFG BKN005



MET'MAP, your aeronautical weather chart ! - Copyright ORBIFLY December 2007 - Disclaimer

ORBIFLY MET'MAP TEAM :

Programming & Development : Alexandra Zaïnal
Concept & original design : Baudouin d'Aumeries
Assistance for programming : Marc-Olivier Méhu
Technical & hardware support : Manuel Goepfert

Contact : metmap@orbifly.com




SOURCES & CREDITS :

   NOAA